Terminal Aerodrome Forecast
Issued by NWS

Home | Current Version | Previous Version | Text Only | Print | Product List | Glossary On
Versions: 1 2 3 4 5 6 7 8 9 10 11 12 13 14 15 16
000
FTAK31 PAFA 232333
TAFABT
TAF
PABT 232333Z 2400/2424 VRB02KT P6SM VCFG FEW040 BKN050
     FM241600 VRB02KT 1 1/2SM BR SCT003
     FM242000 VRB02KT 5SM BR SCT003=

USA.gov is the U.S. government's official web portal to all federal, state and local government web resources and services.